createdAt,value
2023-07-05T00:01:15.595Z,100273.81
2023-07-05T00:03:42.288Z,100262.34
2023-07-05T00:06:08.853Z,100261.91
2023-07-05T00:08:35.551Z,100250.75
2023-07-05T00:11:03.555Z,100246.97
2023-07-05T00:13:30.047Z,100226.75
2023-07-05T00:15:56.870Z,100238.69
2023-07-05T00:18:23.569Z,100246.13
2023-07-05T00:20:54.429Z,100245.94
2023-07-05T00:23:47.495Z,100247.47
2023-07-05T00:26:22.721Z,100233.38
2023-07-05T00:28:53.463Z,100208.78
2023-07-05T00:31:22.855Z,100217.41
2023-07-05T00:34:00.050Z,100229.19
2023-07-05T00:36:26.461Z,100222.22
2023-07-05T00:38:52.900Z,100240.09
2023-07-05T00:41:22.684Z,100269.56
2023-07-05T00:43:52.468Z,100274.91
2023-07-05T00:46:29.850Z,100267.63
2023-07-05T00:49:02.606Z,100275.03
2023-07-05T00:51:45.240Z,100241.91
2023-07-05T00:54:12.362Z,100244.66
2023-07-05T00:56:54.824Z,100218.53
2023-07-05T00:59:27.039Z,100194.06
2023-07-05T01:02:02.682Z,100170.47
2023-07-05T01:04:38.791Z,100150.56
2023-07-05T01:07:05.356Z,100142.94
2023-07-05T01:09:38.842Z,100117.03
2023-07-05T01:12:29.859Z,100092.75
2023-07-05T01:15:11.767Z,100121.06
2023-07-05T01:17:45.528Z,100115.41
2023-07-05T01:20:39.599Z,100096.28
2023-07-05T01:23:22.843Z,100091.16
2023-07-05T01:26:14.131Z,100077.97
2023-07-05T01:28:59.398Z,100072.63
2023-07-05T01:31:50.554Z,100070.25
2023-07-05T01:34:35.677Z,100041.16
2023-07-05T01:37:09.418Z,100039.56
2023-07-05T01:39:50.206Z,100032.69
2023-07-05T01:42:16.933Z,100008.69
2023-07-05T01:44:45.400Z,100010.13
2023-07-05T01:47:22.331Z,99996.50
2023-07-05T01:50:02.069Z,99970.06
2023-07-05T01:52:45.446Z,99955.63
2023-07-05T01:55:25.422Z,99942.91
2023-07-05T01:57:59.475Z,99959.06
2023-07-05T02:00:28.393Z,99945.59
2023-07-05T02:03:08.263Z,99912.03
2023-07-05T02:05:35.309Z,99916.56
2023-07-05T02:08:02.259Z,99932.25
2023-07-05T02:10:32.533Z,99950.72
2023-07-05T02:13:07.623Z,99957.47
2023-07-05T02:15:38.970Z,99935.97
2023-07-05T02:18:07.101Z,99912.78
2023-07-05T02:20:37.758Z,99874.88
2023-07-05T02:23:34.828Z,99870.38
2023-07-05T02:26:01.874Z,99878.69
2023-07-05T02:28:28.257Z,99859.56
2023-07-05T02:30:56.045Z,99938.84
2023-07-05T02:33:25.191Z,99972.63
2023-07-05T02:35:51.886Z,99966.22
2023-07-05T02:38:20.747Z,99972.69
2023-07-05T02:40:53.163Z,99953.66
2023-07-05T02:43:25.291Z,99977.41
2023-07-05T02:45:52.118Z,99943.03
2023-07-05T02:48:19.096Z,99948.22
2023-07-05T02:50:45.552Z,99966.41
2023-07-05T02:53:14.627Z,99991.03
2023-07-05T02:55:41.204Z,99966.69
2023-07-05T02:58:08.036Z,99956.88
2023-07-05T03:00:35.144Z,99965.53
2023-07-05T03:03:04.331Z,99933.91
2023-07-05T03:05:38.076Z,99951.97
2023-07-05T03:08:04.716Z,99941.59
2023-07-05T03:10:37.828Z,99927.63
2023-07-05T03:13:23.162Z,99923.56
2023-07-05T03:15:57.356Z,99936.31
2023-07-05T03:18:25.069Z,99931.28
2023-07-05T03:20:58.099Z,99918.72
2023-07-05T03:23:24.711Z,99927.84
2023-07-05T03:26:15.037Z,99897.75
2023-07-05T03:28:41.478Z,99862.63
2023-07-05T03:31:12.501Z,99846.50
2023-07-05T03:33:39.680Z,99770.97
2023-07-05T03:36:13.704Z,99760.47
2023-07-05T03:38:40.680Z,99761.41
2023-07-05T03:41:15.371Z,99754.19
2023-07-05T03:43:43.510Z,99765.81
2023-07-05T03:46:12.443Z,99761.72
2023-07-05T03:48:44.642Z,99777.88
2023-07-05T03:51:13.250Z,99738.06
2023-07-05T03:53:40.352Z,99769.41
2023-07-05T03:56:14.259Z,99780.38
2023-07-05T03:58:40.637Z,99736.63
2023-07-05T04:01:17.722Z,99754.16
2023-07-05T04:03:45.806Z,99759.75
2023-07-05T04:06:12.718Z,99765.31
2023-07-05T04:08:40.113Z,99773.09
2023-07-05T04:11:16.314Z,99774.81
2023-07-05T04:13:42.980Z,99755.78
2023-07-05T04:16:15.157Z,99782.69
2023-07-05T04:18:45.783Z,99781.06
2023-07-05T04:21:25.155Z,99779.56
2023-07-05T04:23:52.746Z,99741.19
2023-07-05T04:26:27.087Z,99764.34
2023-07-05T04:28:54.516Z,99776.72
2023-07-05T04:31:30.062Z,99792.97
2023-07-05T04:34:00.587Z,99782.34
2023-07-05T04:36:29.178Z,99779.03
2023-07-05T04:38:57.583Z,99779.38
2023-07-05T04:41:27.653Z,99770.69
2023-07-05T04:43:57.491Z,99768.34
2023-07-05T04:46:24.251Z,99783.56
2023-07-05T04:48:57.142Z,99774.50
2023-07-05T04:51:23.686Z,99796.56
2023-07-05T04:53:59.249Z,99773.44
2023-07-05T04:56:26.088Z,99750.34
2023-07-05T04:58:56.701Z,99774.53
2023-07-05T05:01:32.780Z,99758.69
2023-07-05T05:03:59.740Z,99768.56
2023-07-05T05:06:26.210Z,99792.25
2023-07-05T05:08:52.610Z,99784.31
2023-07-05T05:11:19.907Z,99793.53
2023-07-05T05:14:06.729Z,99780.72
2023-07-05T05:16:36.522Z,99786.69
2023-07-05T05:19:03.175Z,99789.22
2023-07-05T05:21:29.571Z,99772.88
2023-07-05T05:23:55.979Z,99783.16
2023-07-05T05:26:31.629Z,99796.09
2023-07-05T05:28:58.037Z,99788.91
2023-07-05T05:31:24.561Z,99803.22
2023-07-05T05:33:51.920Z,99786.78
2023-07-05T05:36:25.799Z,99797.88
2023-07-05T05:38:55.009Z,99806.38
2023-07-05T05:41:21.668Z,99790.97
2023-07-05T05:43:52.529Z,99797.66
2023-07-05T05:46:23.662Z,99807.69
2023-07-05T05:48:53.148Z,99785.44
2023-07-05T05:54:04.352Z,99810.91
2023-07-05T05:57:03.150Z,99789.75
2023-07-05T05:59:22.723Z,99807.59
2023-07-05T06:01:51.752Z,99813.50
2023-07-05T06:04:20.248Z,99813.97
2023-07-05T06:06:46.823Z,99826.28
2023-07-05T06:09:17.363Z,99787.47
2023-07-05T06:11:44.037Z,99799.28
2023-07-05T06:14:10.770Z,99825.78
2023-07-05T06:16:42.955Z,99814.50
2023-07-05T06:19:27.743Z,99821.97
2023-07-05T06:21:54.206Z,99815.28
2023-07-05T06:24:24.757Z,99846.25
2023-07-05T06:26:51.447Z,99842.38
2023-07-05T06:29:17.907Z,99855.56
2023-07-05T06:31:44.589Z,99835.53
2023-07-05T06:34:11.271Z,99857.13
2023-07-05T06:36:37.662Z,99899.72
2023-07-05T06:39:04.479Z,99877.75
2023-07-05T06:41:30.967Z,99920.03
2023-07-05T06:44:00.322Z,99926.38
2023-07-05T06:46:27.106Z,99906.69
2023-07-05T06:48:53.797Z,99932.09
2023-07-05T06:51:27.250Z,99947.31
2023-07-05T06:53:53.862Z,99930.34
2023-07-05T06:56:23.311Z,99932.00
2023-07-05T06:58:51.690Z,99965.78
2023-07-05T07:01:22.187Z,99934.34
2023-07-05T07:03:50.814Z,99927.16
2023-07-05T07:06:17.353Z,99918.41
2023-07-05T07:08:43.871Z,99937.56
2023-07-05T07:11:22.375Z,99925.69
2023-07-05T07:13:53.225Z,99918.78
2023-07-05T07:16:22.382Z,99930.75
2023-07-05T07:18:53.766Z,99888.69
2023-07-05T07:24:07.050Z,99868.38
2023-07-05T07:26:34.865Z,99861.09
2023-07-05T07:29:06.383Z,99872.41
2023-07-05T07:31:34.088Z,99816.31
2023-07-05T07:34:04.345Z,99795.50
2023-07-05T07:36:46.746Z,99817.47
2023-07-05T07:39:16.044Z,99799.31
2023-07-05T07:41:47.319Z,99780.19
2023-07-05T07:44:22.844Z,99761.75
2023-07-05T07:46:52.119Z,99805.06
2023-07-05T07:49:24.641Z,99757.63
2023-07-05T07:51:59.400Z,99768.66
2023-07-05T07:54:46.645Z,99791.16
2023-07-05T07:57:37.310Z,99767.69
2023-07-05T08:00:09.985Z,99745.72
2023-07-05T08:02:44.269Z,99750.41
2023-07-05T08:05:15.981Z,99743.75
2023-07-05T08:07:44.808Z,99733.56
2023-07-05T08:10:11.240Z,99707.25
2023-07-05T08:13:01.474Z,99697.41
2023-07-05T08:15:31.228Z,99702.63
2023-07-05T08:18:03.212Z,99696.44
2023-07-05T08:20:33.827Z,99714.09
2023-07-05T08:23:00.376Z,99722.63
2023-07-05T08:25:33.072Z,99715.00
2023-07-05T08:27:59.666Z,99748.00
2023-07-05T08:30:26.178Z,99700.84
2023-07-05T08:32:52.868Z,99661.31
2023-07-05T08:35:21.743Z,99746.91
2023-07-05T08:37:48.445Z,99717.16
2023-07-05T08:40:18.966Z,99764.00
2023-07-05T08:43:03.148Z,99746.91
2023-07-05T08:45:47.599Z,99783.59
2023-07-05T08:48:18.723Z,99719.91
2023-07-05T08:51:13.387Z,99759.16
2023-07-05T08:54:00.441Z,99736.78
2023-07-05T08:56:41.027Z,99755.94
2023-07-05T08:59:35.663Z,99881.34
2023-07-05T09:02:10.245Z,99777.44
2023-07-05T09:04:41.581Z,99809.94
2023-07-05T09:07:52.189Z,99826.44
2023-07-05T09:10:40.387Z,99831.84
2023-07-05T09:13:53.994Z,99846.97
2023-07-05T09:16:52.268Z,99886.56
2023-07-05T09:22:30.603Z,99877.34
2023-07-05T09:25:00.180Z,99901.91
2023-07-05T09:27:35.856Z,99892.25
2023-07-05T09:30:21.390Z,99937.00
2023-07-05T09:32:58.256Z,99995.06
2023-07-05T09:35:30.834Z,99955.75
2023-07-05T09:38:16.234Z,99946.31
2023-07-05T09:40:53.180Z,99971.19
2023-07-05T09:43:33.632Z,100002.56
2023-07-05T09:46:02.839Z,100003.59
2023-07-05T09:48:33.945Z,100010.09
2023-07-05T09:51:02.186Z,100031.81
2023-07-05T09:53:52.250Z,100025.84
2023-07-05T09:56:25.325Z,100034.66
2023-07-05T09:59:13.786Z,100041.38
2023-07-05T10:02:14.772Z,100045.38
2023-07-05T10:05:14.677Z,100092.44
2023-07-05T10:08:00.586Z,100104.31
2023-07-05T10:10:38.603Z,100128.16
2023-07-05T10:13:17.927Z,100122.56
2023-07-05T10:15:47.989Z,100141.44
2023-07-05T10:18:33.837Z,100117.84
2023-07-05T10:21:06.254Z,100129.19
2023-07-05T10:23:33.518Z,100152.50
2023-07-05T10:26:08.148Z,100162.59
2023-07-05T10:28:45.054Z,100176.72
2023-07-05T10:31:27.182Z,100169.06
2023-07-05T10:34:06.566Z,100169.78
2023-07-05T10:36:47.223Z,100154.56
2023-07-05T10:39:25.493Z,100186.91
2023-07-05T10:42:00.891Z,100217.88
2023-07-05T10:44:37.310Z,100211.16
2023-07-05T10:47:07.077Z,100237.75
2023-07-05T10:49:36.447Z,100275.50
2023-07-05T10:52:10.377Z,100248.72
2023-07-05T10:55:10.778Z,100273.69
2023-07-05T10:57:46.147Z,100298.06
2023-07-05T11:00:39.458Z,100300.56
2023-07-05T11:03:54.521Z,100301.06
2023-07-05T11:06:24.998Z,100333.47
2023-07-05T11:08:56.867Z,100298.09
2023-07-05T11:11:26.416Z,100351.50
2023-07-05T11:13:58.871Z,100349.16
2023-07-05T11:16:33.863Z,100364.78
2023-07-05T11:19:27.009Z,100357.44
2023-07-05T11:21:59.780Z,100383.72
2023-07-05T11:24:42.886Z,100405.22
2023-07-05T11:27:30.810Z,100415.19
2023-07-05T11:30:00.775Z,100396.19
2023-07-05T11:36:26.826Z,100427.84
2023-07-05T11:38:57.592Z,100474.88
2023-07-05T11:42:24.019Z,100448.03
2023-07-05T11:45:21.390Z,100453.06
2023-07-05T11:48:03.531Z,100503.25
2023-07-05T11:50:32.158Z,100485.06
2023-07-05T11:53:04.311Z,100510.00
2023-07-05T11:55:35.395Z,100512.34
2023-07-05T11:58:13.944Z,100538.22
2023-07-05T12:01:05.814Z,100551.72
2023-07-05T12:03:54.163Z,100530.31
2023-07-05T12:06:33.479Z,100547.00
2023-07-05T12:09:03.278Z,100579.59
2023-07-05T12:11:43.378Z,100583.94
2023-07-05T12:14:16.830Z,100597.84
2023-07-05T12:16:44.788Z,100589.09
2023-07-05T12:19:34.520Z,100603.84
2023-07-05T12:22:21.500Z,100611.09
2023-07-05T12:24:52.587Z,100610.44
2023-07-05T12:27:38.668Z,100623.41
2023-07-05T12:30:15.779Z,100630.88
2023-07-05T12:32:51.906Z,100642.75
2023-07-05T12:35:34.050Z,100649.47
2023-07-05T12:38:02.474Z,100643.25
2023-07-05T12:40:31.616Z,100654.59
2023-07-05T12:43:08.444Z,100700.91
2023-07-05T12:45:41.889Z,100706.34
2023-07-05T12:48:23.699Z,100698.25
2023-07-05T12:51:01.627Z,100705.22
2023-07-05T12:53:31.640Z,100704.06
2023-07-05T12:56:06.486Z,100729.78
2023-07-05T12:58:36.306Z,100767.53
2023-07-05T13:01:06.420Z,100723.91
2023-07-05T13:03:33.346Z,100749.47
2023-07-05T13:06:01.555Z,100767.75
2023-07-05T13:08:31.647Z,100771.63
2023-07-05T13:11:02.347Z,100779.75
2023-07-05T13:13:46.093Z,100787.97
2023-07-05T13:16:32.399Z,100808.44
2023-07-05T13:19:06.858Z,100834.44
2023-07-05T13:21:47.767Z,100822.25
2023-07-05T13:24:34.376Z,100876.44
2023-07-05T13:27:00.894Z,100892.16
2023-07-05T13:29:31.819Z,100894.69
2023-07-05T13:31:59.410Z,100923.22
2023-07-05T13:34:27.491Z,100912.13
2023-07-05T13:37:08.819Z,100927.06
2023-07-05T13:39:36.843Z,100923.41
2023-07-05T13:42:13.826Z,100943.88
2023-07-05T13:45:13.952Z,100955.94
2023-07-05T13:47:41.030Z,100958.41
2023-07-05T13:50:08.696Z,100975.13
2023-07-05T13:52:38.162Z,100979.66
2023-07-05T13:55:04.796Z,100983.41
2023-07-05T13:57:40.750Z,100979.72
2023-07-05T14:00:13.971Z,100986.06
2023-07-05T14:02:46.390Z,100995.00
2023-07-05T14:05:13.433Z,101001.31
2023-07-05T14:07:39.941Z,101011.38
2023-07-05T14:10:07.181Z,101012.69
2023-07-05T14:12:34.785Z,101022.09
2023-07-05T14:15:03.620Z,101024.88
2023-07-05T14:17:30.496Z,101005.06
2023-07-05T14:19:57.009Z,101014.56
2023-07-05T14:22:23.889Z,101030.22
2023-07-05T14:24:56.298Z,101028.34
2023-07-05T14:27:26.556Z,101038.69
2023-07-05T14:30:14.032Z,101034.50
2023-07-05T14:32:48.196Z,101025.59
2023-07-05T14:35:17.669Z,101042.91
2023-07-05T14:37:48.793Z,101050.31
2023-07-05T14:40:16.613Z,101073.09
2023-07-05T14:42:47.370Z,101070.50
2023-07-05T14:45:28.485Z,101064.94
2023-07-05T14:47:57.485Z,101092.72
2023-07-05T14:53:29.955Z,101088.81
2023-07-05T14:55:57.513Z,101083.75
2023-07-05T14:58:27.328Z,101061.09
2023-07-05T15:00:54.091Z,101064.16
2023-07-05T15:03:29.842Z,101070.63
2023-07-05T15:05:59.064Z,101074.38
2023-07-05T15:08:27.093Z,101070.28
2023-07-05T15:10:56.971Z,101090.19
2023-07-05T15:13:34.675Z,101099.13
2023-07-05T15:16:06.170Z,101090.34
2023-07-05T15:18:36.534Z,101095.25
2023-07-05T15:21:03.135Z,101100.88
2023-07-05T15:23:30.380Z,101118.75
2023-07-05T15:26:00.065Z,101114.28
2023-07-05T15:28:43.973Z,101116.97
2023-07-05T15:33:56.143Z,101114.66
2023-07-05T15:36:34.191Z,101119.50
2023-07-05T15:39:06.610Z,101130.72
2023-07-05T15:41:42.238Z,101138.25
2023-07-05T15:44:09.946Z,101135.41
2023-07-05T15:46:36.511Z,101150.69
2023-07-05T15:49:03.058Z,101158.94
2023-07-05T15:51:32.905Z,101135.41
2023-07-05T15:54:01.221Z,101149.59
2023-07-05T15:56:36.593Z,101158.47
2023-07-05T15:59:08.388Z,101151.66
2023-07-05T16:01:35.324Z,101156.44
2023-07-05T16:04:01.888Z,101158.53
2023-07-05T16:06:37.593Z,101153.28
2023-07-05T16:09:04.079Z,101150.34
2023-07-05T16:11:33.334Z,101160.63
2023-07-05T16:13:59.929Z,101155.03
2023-07-05T16:16:27.684Z,101169.03
2023-07-05T16:18:54.177Z,101154.69
2023-07-05T16:21:23.959Z,101177.78
2023-07-05T16:23:54.542Z,101160.81
2023-07-05T16:26:26.556Z,101166.97
2023-07-05T16:28:52.958Z,101159.72
2023-07-05T16:31:28.583Z,101167.75
2023-07-05T16:33:55.142Z,101173.41
2023-07-05T16:36:23.858Z,101173.50
2023-07-05T16:38:54.378Z,101176.78
2023-07-05T16:41:22.118Z,101172.34
2023-07-05T16:43:52.043Z,101176.69
2023-07-05T16:46:23.130Z,101154.38
2023-07-05T16:49:02.061Z,101181.88
2023-07-05T16:51:31.336Z,101171.63
2023-07-05T16:53:58.493Z,101189.88
2023-07-05T16:56:25.095Z,101173.84
2023-07-05T16:58:54.965Z,101183.00
2023-07-05T17:01:25.518Z,101186.16
2023-07-05T17:03:55.042Z,101190.13
2023-07-05T17:06:25.402Z,101184.41
2023-07-05T17:08:54.564Z,101200.72
2023-07-05T17:11:23.945Z,101203.06
2023-07-05T17:13:53.517Z,101180.13
2023-07-05T17:16:22.783Z,101193.41
2023-07-05T17:18:51.619Z,101182.28
2023-07-05T17:21:18.209Z,101190.03
2023-07-05T17:24:03.196Z,101181.28
2023-07-05T17:26:29.650Z,101177.78
2023-07-05T17:28:56.220Z,101187.00
2023-07-05T17:31:27.378Z,101215.88
2023-07-05T17:34:00.650Z,101193.16
2023-07-05T17:36:38.604Z,101202.03
2023-07-05T17:39:05.417Z,101204.91
2023-07-05T17:41:31.960Z,101199.47
2023-07-05T17:44:00.671Z,101193.03
2023-07-05T17:46:42.575Z,101207.13
2023-07-05T17:49:24.644Z,101206.63
2023-07-05T17:52:17.403Z,101210.63
2023-07-05T17:54:48.829Z,101192.84
2023-07-05T17:57:20.618Z,101213.84
2023-07-05T18:00:17.005Z,101186.16
2023-07-05T18:02:43.853Z,101208.69
2023-07-05T18:05:10.653Z,101231.84
2023-07-05T18:07:37.230Z,101244.59
2023-07-05T18:10:11.731Z,101249.47
2023-07-05T18:12:38.952Z,101236.06
2023-07-05T18:15:08.772Z,101221.19
2023-07-05T18:17:44.374Z,101209.69
2023-07-05T18:20:17.294Z,101213.09
2023-07-05T18:22:43.856Z,101240.50
2023-07-05T18:25:16.601Z,101237.75
2023-07-05T18:27:43.164Z,101270.59
2023-07-05T18:30:12.929Z,101267.16
2023-07-05T18:32:42.131Z,101269.34
2023-07-05T18:35:08.733Z,101278.94
2023-07-05T18:37:38.085Z,101264.19
2023-07-05T18:40:06.280Z,101270.50
2023-07-05T18:42:32.807Z,101256.63
2023-07-05T18:44:59.360Z,101270.75
2023-07-05T18:47:26.644Z,101284.94
2023-07-05T18:49:53.051Z,101292.25
2023-07-05T18:52:25.239Z,101296.84
2023-07-05T18:54:54.560Z,101293.78
2023-07-05T18:57:26.655Z,101284.31
2023-07-05T18:59:59.303Z,101287.50
2023-07-05T19:02:25.787Z,101291.72
2023-07-05T19:04:52.535Z,101295.97
2023-07-05T19:07:20.169Z,101315.91
2023-07-05T19:09:46.696Z,101315.34
2023-07-05T19:12:13.278Z,101309.47
2023-07-05T19:14:43.805Z,101323.69
2023-07-05T19:17:10.403Z,101298.47
2023-07-05T19:19:36.910Z,101322.94
2023-07-05T19:22:03.446Z,101320.28
2023-07-05T19:24:32.140Z,101322.16
2023-07-05T19:26:58.588Z,101316.88
2023-07-05T19:29:25.085Z,101323.25
2023-07-05T19:31:54.466Z,101326.97
2023-07-05T19:34:26.818Z,101328.28
2023-07-05T19:36:55.819Z,101321.94
2023-07-05T19:39:22.325Z,101331.59
2023-07-05T19:41:57.148Z,101327.88
2023-07-05T19:44:23.680Z,101339.63
2023-07-05T19:46:53.458Z,101334.56
2023-07-05T19:49:22.664Z,101343.97
2023-07-05T19:51:57.671Z,101344.25
2023-07-05T19:54:26.800Z,101341.59
2023-07-05T19:56:54.778Z,101332.34
2023-07-05T19:59:24.428Z,101339.88
2023-07-05T20:02:01.636Z,101322.41
2023-07-05T20:04:28.249Z,101333.88
2023-07-05T20:06:56.194Z,101357.56
2023-07-05T20:09:25.216Z,101361.81
2023-07-05T20:11:54.666Z,101355.75
2023-07-05T20:14:27.412Z,101366.44
2023-07-05T20:16:59.560Z,101367.03
2023-07-05T20:19:33.064Z,101360.94
2023-07-05T20:21:59.558Z,101359.59
2023-07-05T20:24:27.497Z,101361.22
2023-07-05T20:26:56.133Z,101340.22
2023-07-05T20:29:22.554Z,101367.34
2023-07-05T20:31:53.263Z,101364.44
2023-07-05T20:34:24.123Z,101365.47
2023-07-05T20:36:56.455Z,101365.78
2023-07-05T20:39:25.326Z,101361.00
2023-07-05T20:41:54.966Z,101370.56
2023-07-05T20:44:22.925Z,101362.84
2023-07-05T20:47:06.132Z,101370.56
2023-07-05T20:49:40.420Z,101354.88
2023-07-05T20:52:09.621Z,101359.38
2023-07-05T20:54:36.118Z,101353.28
2023-07-05T20:57:03.941Z,101354.38
2023-07-05T20:59:42.376Z,101343.19
2023-07-05T21:02:08.972Z,101350.88
2023-07-05T21:04:35.466Z,101349.84
2023-07-05T21:07:01.940Z,101350.88
2023-07-05T21:09:31.920Z,101342.13
2023-07-05T21:12:00.252Z,101346.38
2023-07-05T21:14:28.803Z,101334.94
2023-07-05T21:16:56.372Z,101333.84
2023-07-05T21:19:22.973Z,101309.94
2023-07-05T21:21:51.990Z,101319.22
2023-07-05T21:24:18.552Z,101309.38
2023-07-05T21:26:44.932Z,101319.75
2023-07-05T21:29:14.365Z,101324.53
2023-07-05T21:31:56.189Z,101315.50
2023-07-05T21:34:22.743Z,101317.88
2023-07-05T21:36:50.952Z,101320.50
2023-07-05T21:39:28.521Z,101326.34
2023-07-05T21:41:55.068Z,101329.31
2023-07-05T21:44:25.221Z,101304.06
2023-07-05T21:46:57.641Z,101305.06
2023-07-05T21:49:24.146Z,101306.94
2023-07-05T21:51:53.781Z,101310.94
2023-07-05T21:54:23.079Z,101326.09
2023-07-05T21:57:00.325Z,101315.47
2023-07-05T21:59:27.472Z,101295.28
2023-07-05T22:01:53.976Z,101317.03
2023-07-05T22:04:37.285Z,101308.53
2023-07-05T22:07:07.078Z,101319.13
2023-07-05T22:09:33.467Z,101323.16
2023-07-05T22:12:00.243Z,101330.09
2023-07-05T22:14:26.976Z,101323.44
2023-07-05T22:16:53.418Z,101322.91
2023-07-05T22:19:23.335Z,101331.41
2023-07-05T22:21:56.223Z,101321.88
2023-07-05T22:24:28.548Z,101314.16
2023-07-05T22:26:56.870Z,101303.00
2023-07-05T22:29:27.272Z,101315.00
2023-07-05T22:31:53.877Z,101345.81
2023-07-05T22:34:23.000Z,101321.63
2023-07-05T22:36:51.991Z,101325.09
2023-07-05T22:39:20.892Z,101310.75
2023-07-05T22:41:57.591Z,101336.00
2023-07-05T22:44:29.607Z,101316.31
2023-07-05T22:46:56.298Z,101338.91
2023-07-05T22:49:22.922Z,101347.97
2023-07-05T22:51:51.252Z,101361.50
2023-07-05T22:54:23.576Z,101359.91
2023-07-05T22:56:57.010Z,101360.44
2023-07-05T22:59:28.568Z,101354.06
2023-07-05T23:01:57.049Z,101375.06
2023-07-05T23:04:23.646Z,101351.13
2023-07-05T23:06:56.092Z,101365.75
2023-07-05T23:09:22.588Z,101352.44
2023-07-05T23:11:50.406Z,101373.16
2023-07-05T23:14:22.561Z,101363.31
2023-07-05T23:16:50.973Z,101352.84
2023-07-05T23:19:17.905Z,101367.47
2023-07-05T23:21:53.136Z,101355.47
2023-07-05T23:24:27.874Z,101378.31
2023-07-05T23:26:54.346Z,101370.59
2023-07-05T23:29:23.964Z,101370.00
2023-07-05T23:34:39.613Z,101366.22
2023-07-05T23:37:06.181Z,101352.31
2023-07-05T23:39:32.705Z,101376.03
2023-07-05T23:41:59.232Z,101366.97
2023-07-05T23:44:25.784Z,101350.69
2023-07-05T23:46:54.076Z,101347.50
2023-07-05T23:49:27.801Z,101350.13
2023-07-05T23:51:54.248Z,101335.47
2023-07-05T23:54:23.439Z,101345.59
2023-07-05T23:57:11.468Z,101366.94
2023-07-05T23:59:37.982Z,101350.63
